createdAt,value
2019-03-26T00:01:06.417Z,98199.28
2019-03-26T00:03:34.876Z,98218.02
2019-03-26T00:06:03.260Z,98228.20
2019-03-26T00:08:31.639Z,98234.98
2019-03-26T00:11:00.025Z,98234.06
2019-03-26T00:13:28.412Z,98238.75
2019-03-26T00:15:56.853Z,98237.45
2019-03-26T00:18:25.232Z,98243.34
2019-03-26T00:20:53.618Z,98239.94
2019-03-26T00:23:22.000Z,98249.28
2019-03-26T00:25:50.386Z,98250.55
2019-03-26T00:28:18.766Z,98242.86
2019-03-26T00:30:47.148Z,98248.38
2019-03-26T00:33:15.525Z,98256.03
2019-03-26T00:35:43.904Z,98256.03
2019-03-26T00:38:12.282Z,98259.47
2019-03-26T00:40:40.660Z,98256.03
2019-03-26T00:43:09.040Z,98264.11
2019-03-26T00:45:37.422Z,98270.48
2019-03-26T00:48:05.807Z,98274.72
2019-03-26T00:50:34.206Z,98277.27
2019-03-26T00:53:02.591Z,98278.52
2019-03-26T00:55:31.968Z,98284.44
2019-03-26T00:58:01.807Z,98279.30
2019-03-26T01:00:38.036Z,98285.66
2019-03-26T01:03:06.837Z,98290.38
2019-03-26T01:05:35.290Z,98287.42
2019-03-26T01:08:03.849Z,98295.94
2019-03-26T01:10:32.232Z,98301.03
2019-03-26T01:13:00.684Z,98313.36
2019-03-26T01:15:29.065Z,98316.27
2019-03-26T01:17:57.461Z,98317.11
2019-03-26T01:20:25.840Z,98322.17
2019-03-26T01:22:54.231Z,98316.17
2019-03-26T01:25:22.614Z,98323.83
2019-03-26T01:27:50.988Z,98327.22
2019-03-26T01:30:19.371Z,98326.72
2019-03-26T01:32:47.748Z,98326.70
2019-03-26T01:35:16.134Z,98321.19
2019-03-26T01:37:44.514Z,98324.11
2019-03-26T01:40:13.035Z,98321.95
2019-03-26T01:42:41.419Z,98318.55
2019-03-26T01:45:09.951Z,98317.28
2019-03-26T01:47:38.331Z,98322.38
2019-03-26T01:50:06.902Z,98321.92
2019-03-26T01:52:35.287Z,98329.55
2019-03-26T01:55:05.518Z,98328.27
2019-03-26T01:57:33.929Z,98327.80
2019-03-26T02:00:03.140Z,98325.66
2019-03-26T02:02:31.522Z,98331.63
2019-03-26T02:05:00.688Z,98331.17
2019-03-26T02:07:29.275Z,98337.14
2019-03-26T02:09:57.662Z,98338.83
2019-03-26T02:12:26.049Z,98348.13
2019-03-26T02:14:54.444Z,98348.08
2019-03-26T02:17:22.901Z,98353.48
2019-03-26T02:19:51.349Z,98353.44
2019-03-26T02:22:19.737Z,98351.31
2019-03-26T02:24:48.129Z,98353.89
2019-03-26T02:27:16.676Z,98359.02
2019-03-26T02:29:45.064Z,98361.98
2019-03-26T02:32:13.448Z,98361.07
2019-03-26T02:34:41.846Z,98358.84
2019-03-26T02:37:11.347Z,98363.02
2019-03-26T02:39:39.737Z,98350.69
2019-03-26T02:42:08.137Z,98354.45
2019-03-26T02:44:36.557Z,98361.23
2019-03-26T02:47:04.933Z,98367.60
2019-03-26T02:49:33.335Z,98367.59
2019-03-26T02:52:01.829Z,98371.42
2019-03-26T02:54:30.228Z,98372.27
2019-03-26T02:56:58.600Z,98375.64
2019-03-26T02:59:27.009Z,98376.50
2019-03-26T03:01:55.456Z,98380.69
2019-03-26T03:04:23.844Z,98382.41
2019-03-26T03:06:52.243Z,98381.16
2019-03-26T03:09:20.617Z,98378.61
2019-03-26T03:11:49.011Z,98382.48
2019-03-26T03:14:17.396Z,98372.30
2019-03-26T03:16:45.773Z,98380.81
2019-03-26T03:19:16.140Z,98369.84
2019-03-26T03:21:44.280Z,98374.09
2019-03-26T03:24:12.667Z,98372.44
2019-03-26T03:26:41.048Z,98369.87
2019-03-26T03:29:09.463Z,98366.89
2019-03-26T03:31:37.825Z,98363.07
2019-03-26T03:34:06.262Z,98369.04
2019-03-26T03:36:34.681Z,98369.04
2019-03-26T03:39:04.418Z,98369.09
2019-03-26T03:41:32.797Z,98378.06
2019-03-26T03:44:01.250Z,98375.09
2019-03-26T03:46:29.902Z,98387.41
2019-03-26T03:48:59.127Z,98411.20
2019-03-26T03:51:29.857Z,98421.72
2019-03-26T03:53:58.906Z,98408.95
2019-03-26T03:56:28.812Z,98421.66
2019-03-26T03:58:59.230Z,98428.03
2019-03-26T04:01:27.618Z,98415.32
2019-03-26T04:03:56.004Z,98430.21
2019-03-26T04:06:24.482Z,98427.61
2019-03-26T04:08:52.868Z,98425.48
2019-03-26T04:11:21.254Z,98427.61
2019-03-26T04:13:49.683Z,98428.06
2019-03-26T04:16:18.071Z,98433.61
2019-03-26T04:18:46.455Z,98434.44
2019-03-26T04:21:14.853Z,98447.13
2019-03-26T04:23:43.247Z,98444.60
2019-03-26T04:26:11.640Z,98447.63
2019-03-26T04:28:40.034Z,98457.03
2019-03-26T04:31:08.424Z,98460.91
2019-03-26T04:33:36.816Z,98467.30
2019-03-26T04:36:05.216Z,98456.73
2019-03-26T04:38:33.614Z,98466.08
2019-03-26T04:41:01.994Z,98469.48
2019-03-26T04:43:30.466Z,98462.23
2019-03-26T04:45:58.854Z,98468.16
2019-03-26T04:48:27.262Z,98462.13
2019-03-26T04:50:55.696Z,98466.75
2019-03-26T04:53:24.080Z,98465.89
2019-03-26T04:55:52.475Z,98460.80
2019-03-26T04:58:20.868Z,98469.30
2019-03-26T05:00:49.265Z,98460.38
2019-03-26T05:03:17.742Z,98467.56
2019-03-26T05:05:46.121Z,98460.43
2019-03-26T05:08:14.737Z,98466.83
2019-03-26T05:10:43.174Z,98460.84
2019-03-26T05:13:11.586Z,98459.97
2019-03-26T05:15:39.959Z,98463.34
2019-03-26T05:18:08.383Z,98445.31
2019-03-26T05:20:36.821Z,98472.83
2019-03-26T05:23:05.212Z,98480.05
2019-03-26T05:25:33.601Z,98477.07
2019-03-26T05:28:02.038Z,98474.97
2019-03-26T05:30:33.012Z,98485.68
2019-03-26T05:33:00.557Z,98482.33
2019-03-26T05:35:28.995Z,98474.76
2019-03-26T05:37:57.435Z,98485.84
2019-03-26T05:40:25.775Z,98489.66
2019-03-26T05:42:54.168Z,98490.98
2019-03-26T05:45:22.576Z,98487.23
2019-03-26T05:47:50.971Z,98498.78
2019-03-26T05:50:19.370Z,98497.59
2019-03-26T05:52:47.759Z,98501.46
2019-03-26T05:55:16.192Z,98500.23
2019-03-26T05:57:44.588Z,98511.81
2019-03-26T06:00:15.859Z,98513.64
2019-03-26T06:02:44.244Z,98513.31
2019-03-26T06:05:12.655Z,98519.81
2019-03-26T06:07:41.048Z,98514.80
2019-03-26T06:10:11.453Z,98519.06
2019-03-26T06:12:39.915Z,98521.19
2019-03-26T06:15:09.264Z,98522.47
2019-03-26T06:17:37.714Z,98525.02
2019-03-26T06:20:08.339Z,98524.24
2019-03-26T06:22:36.723Z,98524.29
2019-03-26T06:25:08.266Z,98524.33
2019-03-26T06:27:36.745Z,98523.55
2019-03-26T06:30:07.515Z,98531.22
2019-03-26T06:32:35.909Z,98533.45
2019-03-26T06:35:06.549Z,98530.94
2019-03-26T06:37:35.004Z,98538.19
2019-03-26T06:40:04.397Z,98542.47
2019-03-26T06:42:32.776Z,98548.91
2019-03-26T06:45:01.165Z,98549.81
2019-03-26T06:47:29.550Z,98544.34
2019-03-26T06:49:58.839Z,98546.11
2019-03-26T06:52:27.224Z,98549.53
2019-03-26T06:54:55.641Z,98542.32
2019-03-26T06:57:35.046Z,98551.31
2019-03-26T06:59:54.263Z,98551.77
2019-03-26T07:02:22.718Z,98547.56
2019-03-26T07:04:51.112Z,98551.05
2019-03-26T07:07:30.888Z,98556.20
2019-03-26T07:09:49.659Z,98564.78
2019-03-26T07:12:18.049Z,98566.92
2019-03-26T07:14:46.445Z,98569.52
2019-03-26T07:17:14.839Z,98571.69
2019-03-26T07:19:43.238Z,98563.20
2019-03-26T07:22:11.627Z,98563.70
2019-03-26T07:24:40.024Z,98565.02
2019-03-26T07:27:08.416Z,98571.48
2019-03-26T07:29:36.882Z,98575.37
2019-03-26T07:32:05.263Z,98571.98
2019-03-26T07:34:33.660Z,98575.42
2019-03-26T07:37:02.056Z,98552.73
2019-03-26T07:39:30.451Z,98581.91
2019-03-26T07:41:58.902Z,98579.40
2019-03-26T07:44:27.291Z,98576.88
2019-03-26T07:46:55.758Z,98572.20
2019-03-26T07:49:24.148Z,98566.72
2019-03-26T07:51:52.619Z,98573.58
2019-03-26T07:54:21.000Z,98577.42
2019-03-26T07:56:49.407Z,98575.31
2019-03-26T07:59:17.792Z,98573.56
2019-03-26T08:01:46.171Z,98575.28
2019-03-26T08:04:14.570Z,98572.78
2019-03-26T08:06:43.072Z,98573.26
2019-03-26T08:09:11.524Z,98571.22
2019-03-26T08:11:39.880Z,98578.08
2019-03-26T08:14:08.276Z,98577.66
2019-03-26T08:16:36.671Z,98587.08
2019-03-26T08:19:05.139Z,98585.80
2019-03-26T08:21:33.534Z,98579.00
2019-03-26T08:24:01.995Z,98587.57
2019-03-26T08:26:30.412Z,98585.50
2019-03-26T08:29:00.956Z,98595.36
2019-03-26T08:31:28.916Z,98599.67
2019-03-26T08:33:57.319Z,98606.09
2019-03-26T08:36:25.802Z,98582.95
2019-03-26T08:38:54.205Z,98605.73
2019-03-26T08:41:22.596Z,98604.07
2019-03-26T08:43:50.987Z,98604.98
2019-03-26T08:46:19.387Z,98603.75
2019-03-26T08:48:47.777Z,98604.22
2019-03-26T08:51:16.237Z,98613.27
2019-03-26T08:53:44.909Z,98612.89
2019-03-26T08:56:13.309Z,98607.81
2019-03-26T08:58:41.720Z,98614.73
2019-03-26T09:01:10.324Z,98615.61
2019-03-26T09:03:38.712Z,98627.21
2019-03-26T09:06:07.228Z,98620.83
2019-03-26T09:08:35.612Z,98621.70
2019-03-26T09:11:04.085Z,98619.17
2019-03-26T09:13:32.484Z,98624.31
2019-03-26T09:16:00.882Z,98625.64
2019-03-26T09:18:29.356Z,98623.55
2019-03-26T09:20:57.745Z,98632.97
2019-03-26T09:23:26.169Z,98623.17
2019-03-26T09:25:54.543Z,98627.89
2019-03-26T09:28:22.959Z,98624.45
2019-03-26T09:30:51.455Z,98613.34
2019-03-26T09:33:19.845Z,98615.48
2019-03-26T09:35:48.274Z,98607.81
2019-03-26T09:38:16.638Z,98604.80
2019-03-26T09:40:45.163Z,98605.63
2019-03-26T09:43:13.628Z,98598.30
2019-03-26T09:45:42.086Z,98600.02
2019-03-26T09:48:10.474Z,98600.38
2019-03-26T09:50:38.855Z,98594.36
2019-03-26T09:53:07.235Z,98596.46
2019-03-26T09:55:35.685Z,98590.87
2019-03-26T09:58:05.396Z,98599.41
2019-03-26T10:00:33.827Z,98601.98
2019-03-26T10:03:02.401Z,98594.70
2019-03-26T10:05:30.752Z,98580.17
2019-03-26T10:07:59.144Z,98592.95
2019-03-26T10:10:27.527Z,98597.69
2019-03-26T10:12:55.919Z,98595.97
2019-03-26T10:15:24.314Z,98584.80
2019-03-26T10:17:52.714Z,98592.45
2019-03-26T10:20:21.490Z,98597.59
2019-03-26T10:22:49.935Z,98594.17
2019-03-26T10:25:18.384Z,98595.90
2019-03-26T10:27:48.987Z,98581.32
2019-03-26T10:30:20.408Z,98589.02
2019-03-26T10:32:48.922Z,98586.78
2019-03-26T10:35:17.305Z,98589.73
2019-03-26T10:37:45.709Z,98586.28
2019-03-26T10:40:17.650Z,98592.30
2019-03-26T10:42:46.329Z,98583.79
2019-03-26T10:45:14.854Z,98576.56
2019-03-26T10:47:43.719Z,98592.44
2019-03-26T10:50:12.294Z,98593.75
2019-03-26T10:52:40.633Z,98595.97
2019-03-26T10:55:09.407Z,98595.63
2019-03-26T10:57:38.784Z,98595.63
2019-03-26T11:00:07.714Z,98597.80
2019-03-26T11:02:36.092Z,98601.27
2019-03-26T11:05:06.208Z,98591.00
2019-03-26T11:07:34.632Z,98586.69
2019-03-26T11:10:03.275Z,98582.38
2019-03-26T11:12:31.680Z,98578.94
2019-03-26T11:15:00.152Z,98573.02
2019-03-26T11:17:28.744Z,98581.56
2019-03-26T11:19:57.137Z,98579.42
2019-03-26T11:22:26.502Z,98581.08
2019-03-26T11:24:54.884Z,98583.19
2019-03-26T11:27:23.271Z,98577.16
2019-03-26T11:29:51.653Z,98577.96
2019-03-26T11:32:20.179Z,98572.75
2019-03-26T11:34:48.562Z,98573.11
2019-03-26T11:37:17.003Z,98573.56
2019-03-26T11:39:45.794Z,98572.61
2019-03-26T11:42:14.254Z,98573.41
2019-03-26T11:44:42.655Z,98568.14
2019-03-26T11:47:11.099Z,98568.05
2019-03-26T11:49:39.481Z,98569.28
2019-03-26T11:52:08.833Z,98559.78
2019-03-26T11:54:37.227Z,98559.67
2019-03-26T11:57:05.671Z,98555.72
2019-03-26T11:59:34.051Z,98548.70
2019-03-26T12:02:02.440Z,98546.88
2019-03-26T12:04:30.855Z,98545.50
2019-03-26T12:06:59.232Z,98552.71
2019-03-26T12:09:27.648Z,98553.61
2019-03-26T12:11:56.592Z,98548.09
2019-03-26T12:14:24.985Z,98548.94
2019-03-26T12:16:53.408Z,98540.24
2019-03-26T12:19:21.794Z,98532.83
2019-03-26T12:21:50.179Z,98538.75
2019-03-26T12:24:18.567Z,98534.77
2019-03-26T12:26:47.022Z,98535.23
2019-03-26T12:29:15.550Z,98538.75
2019-03-26T12:31:44.758Z,98535.38
2019-03-26T12:34:13.233Z,98537.30
2019-03-26T12:36:41.686Z,98535.76
2019-03-26T12:39:10.649Z,98536.63
2019-03-26T12:41:39.127Z,98531.17
2019-03-26T12:44:07.520Z,98533.59
2019-03-26T12:46:35.914Z,98522.48
2019-03-26T12:49:04.318Z,98527.98
2019-03-26T12:51:32.702Z,98530.73
2019-03-26T12:54:01.163Z,98526.06
2019-03-26T12:56:29.697Z,98527.40
2019-03-26T12:58:58.090Z,98522.30
2019-03-26T13:01:27.396Z,98514.98
2019-03-26T13:03:56.078Z,98520.50
2019-03-26T13:06:25.596Z,98520.97
2019-03-26T13:08:53.997Z,98520.95
2019-03-26T13:11:22.517Z,98517.06
2019-03-26T13:13:51.239Z,98511.44
2019-03-26T13:16:19.731Z,98513.48
2019-03-26T13:18:48.435Z,98509.52
2019-03-26T13:21:16.817Z,98509.38
2019-03-26T13:23:45.785Z,98509.28
2019-03-26T13:26:15.446Z,98508.36
2019-03-26T13:28:43.880Z,98498.94
2019-03-26T13:31:12.281Z,98504.36
2019-03-26T13:33:40.750Z,98496.62
2019-03-26T13:36:09.144Z,98496.66
2019-03-26T13:38:38.915Z,98496.70
2019-03-26T13:41:07.366Z,98486.91
2019-03-26T13:43:35.774Z,98492.13
2019-03-26T13:46:04.273Z,98494.28
2019-03-26T13:48:32.705Z,98492.22
2019-03-26T13:51:01.088Z,98482.81
2019-03-26T13:53:29.474Z,98482.81
2019-03-26T13:55:57.863Z,98478.54
2019-03-26T13:58:26.524Z,98472.94
2019-03-26T14:00:55.084Z,98476.75
2019-03-26T14:03:23.476Z,98477.61
2019-03-26T14:05:51.939Z,98473.72
2019-03-26T14:08:20.403Z,98471.15
2019-03-26T14:10:48.814Z,98474.89
2019-03-26T14:13:17.271Z,98479.20
2019-03-26T14:15:45.671Z,98467.14
2019-03-26T14:18:15.024Z,98461.91
2019-03-26T14:20:43.488Z,98463.61
2019-03-26T14:23:11.867Z,98465.33
2019-03-26T14:25:40.277Z,98471.30
2019-03-26T14:28:09.495Z,98464.42
2019-03-26T14:30:42.387Z,98461.42
2019-03-26T14:33:11.844Z,98462.27
2019-03-26T14:35:41.202Z,98460.11
2019-03-26T14:38:09.738Z,98465.25
2019-03-26T14:40:38.348Z,98466.14
2019-03-26T14:43:07.130Z,98467.36
2019-03-26T14:45:35.611Z,98457.88
2019-03-26T14:48:04.278Z,98465.17
2019-03-26T14:50:32.703Z,98462.55
2019-03-26T14:53:01.196Z,98462.95
2019-03-26T14:55:29.690Z,98459.23
2019-03-26T14:57:58.143Z,98460.72
2019-03-26T15:00:27.854Z,98451.00
2019-03-26T15:02:57.523Z,98453.24
2019-03-26T15:05:26.219Z,98456.31
2019-03-26T15:07:54.613Z,98457.94
2019-03-26T15:10:23.557Z,98452.69
2019-03-26T15:12:52.456Z,98453.95
2019-03-26T15:15:20.835Z,98456.13
2019-03-26T15:17:49.245Z,98455.27
2019-03-26T15:20:17.748Z,98453.56
2019-03-26T15:22:46.146Z,98463.50
2019-03-26T15:25:14.535Z,98467.42
2019-03-26T15:27:42.931Z,98468.36
2019-03-26T15:30:13.226Z,98471.94
2019-03-26T15:32:41.742Z,98464.72
2019-03-26T15:35:10.990Z,98463.87
2019-03-26T15:37:39.357Z,98462.22
2019-03-26T15:40:08.972Z,98471.23
2019-03-26T15:42:37.366Z,98463.88
2019-03-26T15:45:07.285Z,98469.47
2019-03-26T15:47:35.683Z,98466.91
2019-03-26T15:50:06.047Z,98468.64
2019-03-26T15:52:34.448Z,98470.41
2019-03-26T15:55:02.902Z,98472.55
2019-03-26T15:57:32.497Z,98475.56
2019-03-26T16:00:00.858Z,98468.70
2019-03-26T16:02:29.241Z,98477.29
2019-03-26T16:04:57.620Z,98476.00
2019-03-26T16:07:26.006Z,98478.16
2019-03-26T16:09:54.390Z,98482.46
2019-03-26T16:12:22.818Z,98483.41
2019-03-26T16:14:51.212Z,98493.72
2019-03-26T16:17:19.588Z,98492.87
2019-03-26T16:19:47.962Z,98484.27
2019-03-26T16:22:17.795Z,98490.34
2019-03-26T16:24:46.398Z,98486.92
2019-03-26T16:27:14.785Z,98489.57
2019-03-26T16:29:43.246Z,98497.31
2019-03-26T16:32:11.629Z,98494.31
2019-03-26T16:34:40.074Z,98492.17
2019-03-26T16:37:08.485Z,98502.47
2019-03-26T16:39:36.863Z,98512.77
2019-03-26T16:42:05.253Z,98505.94
2019-03-26T16:44:33.644Z,98509.41
2019-03-26T16:47:02.026Z,98502.14
2019-03-26T16:49:30.413Z,98507.74
2019-03-26T16:51:58.878Z,98516.31
2019-03-26T16:54:27.256Z,98512.07
2019-03-26T16:56:55.640Z,98512.09
2019-03-26T16:59:24.022Z,98518.11
2019-03-26T17:01:52.426Z,98517.28
2019-03-26T17:04:27.590Z,98520.28
2019-03-26T17:06:56.103Z,98522.42
2019-03-26T17:09:24.499Z,98527.58
2019-03-26T17:12:02.997Z,98524.16
2019-03-26T17:14:23.103Z,98522.44
2019-03-26T17:16:51.563Z,98524.17
2019-03-26T17:19:19.983Z,98528.89
2019-03-26T17:21:49.434Z,98520.33
2019-03-26T17:24:17.917Z,98532.75
2019-03-26T17:26:46.356Z,98530.19
2019-03-26T17:29:14.841Z,98535.76
2019-03-26T17:31:43.226Z,98531.05
2019-03-26T17:34:11.687Z,98530.17
2019-03-26T17:36:40.144Z,98535.75
2019-03-26T17:39:09.275Z,98536.60
2019-03-26T17:41:37.675Z,98535.36
2019-03-26T17:44:06.147Z,98435.27
2019-03-26T17:46:34.596Z,98539.64
2019-03-26T17:49:02.988Z,98543.94
2019-03-26T17:51:33.298Z,98546.08
2019-03-26T17:54:04.458Z,98543.10
2019-03-26T17:56:36.990Z,98539.25
2019-03-26T17:59:05.426Z,98545.24
2019-03-26T18:01:33.858Z,98547.81
2019-03-26T18:04:02.386Z,98555.97
2019-03-26T18:06:30.785Z,98557.69
2019-03-26T18:08:59.181Z,98553.41
2019-03-26T18:11:27.635Z,98561.55
2019-03-26T18:13:56.016Z,98558.09
2019-03-26T18:16:24.414Z,98557.69
2019-03-26T18:18:55.032Z,98568.81
2019-03-26T18:21:22.995Z,98559.83
2019-03-26T18:23:51.380Z,98560.67
2019-03-26T18:26:19.795Z,98563.69
2019-03-26T18:28:48.140Z,98570.11
2019-03-26T18:31:16.525Z,98567.54
2019-03-26T18:33:44.910Z,98570.55
2019-03-26T18:36:13.282Z,98567.10
2019-03-26T18:38:41.665Z,98567.10
2019-03-26T18:41:11.686Z,98577.38
2019-03-26T18:43:40.113Z,98578.26
2019-03-26T18:46:08.575Z,98575.69
2019-03-26T18:48:36.997Z,98587.25
2019-03-26T18:51:07.299Z,98586.81
2019-03-26T18:53:35.683Z,98579.52
2019-03-26T18:56:04.088Z,98575.66
2019-03-26T18:58:32.463Z,98573.94
2019-03-26T19:01:00.907Z,98572.24
2019-03-26T19:03:29.400Z,98577.38
2019-03-26T19:05:57.837Z,98577.79
2019-03-26T19:08:27.276Z,98585.50
2019-03-26T19:10:55.663Z,98583.80
2019-03-26T19:13:24.068Z,98590.63
2019-03-26T19:15:52.485Z,98588.94
2019-03-26T19:18:20.888Z,98578.22
2019-03-26T19:21:01.531Z,98591.51
2019-03-26T19:23:22.275Z,98588.94
2019-03-26T19:25:50.665Z,98597.93
2019-03-26T19:28:19.078Z,98594.08
2019-03-26T19:30:47.455Z,98596.20
2019-03-26T19:33:15.864Z,98597.92
2019-03-26T19:35:44.322Z,98585.93
2019-03-26T19:38:12.709Z,98591.94
2019-03-26T19:40:41.098Z,98588.09
2019-03-26T19:43:11.135Z,98589.38
2019-03-26T19:45:39.582Z,98590.22
2019-03-26T19:48:09.943Z,98589.78
2019-03-26T19:50:38.347Z,98588.49
2019-03-26T19:53:07.793Z,98589.37
2019-03-26T19:55:36.180Z,98591.50
2019-03-26T19:58:04.672Z,98596.19
2019-03-26T20:00:33.041Z,98598.76
2019-03-26T20:03:01.418Z,98593.22
2019-03-26T20:05:29.807Z,98593.63
2019-03-26T20:07:58.211Z,98591.05
2019-03-26T20:10:26.709Z,98589.77
2019-03-26T20:12:55.133Z,98591.92
2019-03-26T20:15:23.591Z,98586.79
2019-03-26T20:17:52.057Z,98589.36
2019-03-26T20:20:20.512Z,98597.91
2019-03-26T20:22:48.899Z,98592.77
2019-03-26T20:25:17.349Z,98593.21
2019-03-26T20:27:45.804Z,98597.91
2019-03-26T20:30:17.633Z,98599.19
2019-03-26T20:32:46.039Z,98598.78
2019-03-26T20:35:15.872Z,98608.61
2019-03-26T20:37:44.262Z,98612.45
2019-03-26T20:40:13.093Z,98607.75
2019-03-26T20:42:42.462Z,98610.73
2019-03-26T20:45:14.413Z,98607.31
2019-03-26T20:47:44.043Z,98613.29
2019-03-26T20:50:14.590Z,98611.59
2019-03-26T20:52:43.967Z,98610.72
2019-03-26T20:55:17.708Z,98615.86
2019-03-26T20:57:46.448Z,98620.15
2019-03-26T21:00:17.218Z,98615.02
2019-03-26T21:02:45.611Z,98618.42
2019-03-26T21:05:17.032Z,98617.14
2019-03-26T21:07:47.804Z,98613.73
2019-03-26T21:10:15.628Z,98622.28
2019-03-26T21:12:44.024Z,98618.42
2019-03-26T21:15:12.723Z,98624.84
2019-03-26T21:17:41.111Z,98624.44
2019-03-26T21:20:10.250Z,98633.83
2019-03-26T21:22:38.624Z,98629.98
2019-03-26T21:25:09.962Z,98631.27
2019-03-26T21:27:39.570Z,98635.55
2019-03-26T21:30:15.748Z,98631.70
2019-03-26T21:32:44.404Z,98630.84
2019-03-26T21:35:13.059Z,98637.27
2019-03-26T21:37:41.456Z,98635.98
2019-03-26T21:40:11.084Z,98636.83
2019-03-26T21:42:39.477Z,98640.23
2019-03-26T21:45:10.009Z,98645.36
2019-03-26T21:47:39.336Z,98655.22
2019-03-26T21:50:08.468Z,98665.05
2019-03-26T21:52:36.853Z,98667.21
2019-03-26T21:55:07.947Z,98662.08
2019-03-26T21:57:43.301Z,98665.92
2019-03-26T22:00:13.324Z,98664.20
2019-03-26T22:02:41.717Z,98668.04
2019-03-26T22:05:10.231Z,98638.91
2019-03-26T22:07:39.577Z,98663.35
2019-03-26T22:10:08.902Z,98662.47
2019-03-26T22:12:37.298Z,98652.63
2019-03-26T22:15:08.788Z,98657.77
2019-03-26T22:17:37.314Z,98642.80
2019-03-26T22:20:06.730Z,98645.77
2019-03-26T22:22:36.170Z,98649.21
2019-03-26T22:25:08.842Z,98648.33
2019-03-26T22:27:37.342Z,98656.90
2019-03-26T22:30:07.976Z,98653.45
2019-03-26T22:32:36.372Z,98653.86
2019-03-26T22:35:07.104Z,98649.97
2019-03-26T22:37:39.503Z,98653.38
2019-03-26T22:40:10.898Z,98649.92
2019-03-26T22:42:39.361Z,98658.88
2019-03-26T22:45:09.085Z,98658.41
2019-03-26T22:47:39.211Z,98657.53
2019-03-26T22:50:10.008Z,98660.08
2019-03-26T22:52:38.464Z,98659.20
2019-03-26T22:55:11.567Z,98671.56
2019-03-26T22:57:39.962Z,98669.39
2019-03-26T23:00:11.397Z,98672.77
2019-03-26T23:02:39.782Z,98677.45
2019-03-26T23:05:09.212Z,98681.67
2019-03-26T23:07:37.601Z,98682.47
2019-03-26T23:10:07.524Z,98687.11
2019-03-26T23:12:35.913Z,98683.68
2019-03-26T23:15:14.496Z,98684.53
2019-03-26T23:17:42.947Z,98694.76
2019-03-26T23:20:11.334Z,98695.12
2019-03-26T23:22:39.738Z,98690.40
2019-03-26T23:25:08.202Z,98691.69
2019-03-26T23:27:36.588Z,98689.58
2019-03-26T23:30:09.964Z,98692.53
2019-03-26T23:32:38.415Z,98689.56
2019-03-26T23:35:07.236Z,98694.24
2019-03-26T23:37:35.630Z,98693.80
2019-03-26T23:40:04.763Z,98692.92
2019-03-26T23:42:33.148Z,98700.19
2019-03-26T23:45:01.615Z,98701.86
2019-03-26T23:47:30.023Z,98696.33
2019-03-26T23:49:58.432Z,98693.80
2019-03-26T23:52:26.814Z,98703.20
2019-03-26T23:54:55.203Z,98701.49
2019-03-26T23:57:23.595Z,98696.40
2019-03-26T23:59:51.990Z,98697.27
